sensor_id;sensor_type;location;lat;lon;timestamp;P1;durP1;ratioP1;P2;durP2;ratioP2
47381;SDS011;33128;51.580;5.170;2022-12-07T00:03:31;25.35;;;24.05;;
47381;SDS011;33128;51.580;5.170;2022-12-07T00:05:57;24.95;;;23.60;;
47381;SDS011;33128;51.580;5.170;2022-12-07T00:08:23;24.23;;;22.92;;
47381;SDS011;33128;51.580;5.170;2022-12-07T00:10:49;23.45;;;21.80;;
47381;SDS011;33128;51.580;5.170;2022-12-07T00:13:14;25.92;;;24.33;;
47381;SDS011;33128;51.580;5.170;2022-12-07T00:15:40;26.85;;;25.13;;
47381;SDS011;33128;51.580;5.170;2022-12-07T00:18:05;24.23;;;22.83;;
47381;SDS011;33128;51.580;5.170;2022-12-07T00:20:31;25.88;;;24.08;;
47381;SDS011;33128;51.580;5.170;2022-12-07T00:22:57;25.00;;;22.92;;
47381;SDS011;33128;51.580;5.170;2022-12-07T00:25:23;25.27;;;23.58;;
47381;SDS011;33128;51.580;5.170;2022-12-07T00:27:49;24.00;;;22.63;;
47381;SDS011;33128;51.580;5.170;2022-12-07T00:30:15;24.85;;;23.38;;
47381;SDS011;33128;51.580;5.170;2022-12-07T00:32:43;23.55;;;22.08;;
47381;SDS011;33128;51.580;5.170;2022-12-07T00:35:09;24.77;;;23.48;;
47381;SDS011;33128;51.580;5.170;2022-12-07T00:37:34;24.15;;;22.55;;
47381;SDS011;33128;51.580;5.170;2022-12-07T00:40:00;24.10;;;22.73;;
47381;SDS011;33128;51.580;5.170;2022-12-07T00:42:25;24.45;;;22.95;;
47381;SDS011;33128;51.580;5.170;2022-12-07T00:44:51;22.77;;;21.58;;
47381;SDS011;33128;51.580;5.170;2022-12-07T00:47:16;23.88;;;22.38;;
47381;SDS011;33128;51.580;5.170;2022-12-07T00:49:42;22.48;;;21.23;;
47381;SDS011;33128;51.580;5.170;2022-12-07T00:52:08;23.95;;;22.67;;
47381;SDS011;33128;51.580;5.170;2022-12-07T00:54:33;24.48;;;23.17;;
47381;SDS011;33128;51.580;5.170;2022-12-07T00:56:59;24.13;;;22.88;;
47381;SDS011;33128;51.580;5.170;2022-12-07T00:59:24;25.30;;;24.00;;
47381;SDS011;33128;51.580;5.170;2022-12-07T01:01:50;25.25;;;23.77;;
47381;SDS011;33128;51.580;5.170;2022-12-07T01:04:15;23.48;;;22.42;;
47381;SDS011;33128;51.580;5.170;2022-12-07T01:06:41;23.70;;;22.38;;
47381;SDS011;33128;51.580;5.170;2022-12-07T01:09:06;25.25;;;23.55;;
47381;SDS011;33128;51.580;5.170;2022-12-07T01:11:32;23.58;;;22.55;;
47381;SDS011;33128;51.580;5.170;2022-12-07T01:13:59;25.13;;;23.80;;
47381;SDS011;33128;51.580;5.170;2022-12-07T01:16:27;24.30;;;22.90;;
47381;SDS011;33128;51.580;5.170;2022-12-07T01:18:54;24.83;;;23.30;;
47381;SDS011;33128;51.580;5.170;2022-12-07T01:21:22;25.92;;;24.25;;
47381;SDS011;33128;51.580;5.170;2022-12-07T01:23:49;26.50;;;24.80;;
47381;SDS011;33128;51.580;5.170;2022-12-07T01:26:22;27.08;;;25.42;;
47381;SDS011;33128;51.580;5.170;2022-12-07T01:28:49;26.50;;;25.20;;
47381;SDS011;33128;51.580;5.170;2022-12-07T01:31:19;27.40;;;26.15;;
47381;SDS011;33128;51.580;5.170;2022-12-07T01:33:48;27.15;;;25.85;;
47381;SDS011;33128;51.580;5.170;2022-12-07T01:36:17;26.25;;;25.10;;
47381;SDS011;33128;51.580;5.170;2022-12-07T01:38:51;27.52;;;26.13;;
47381;SDS011;33128;51.580;5.170;2022-12-07T01:41:21;27.02;;;25.52;;
47381;SDS011;33128;51.580;5.170;2022-12-07T01:46:41;26.98;;;25.42;;
47381;SDS011;33128;51.580;5.170;2022-12-07T01:49:16;27.15;;;25.95;;
47381;SDS011;33128;51.580;5.170;2022-12-07T01:51:46;27.37;;;26.10;;
47381;SDS011;33128;51.580;5.170;2022-12-07T01:54:14;27.58;;;26.38;;
47381;SDS011;33128;51.580;5.170;2022-12-07T01:56:42;27.33;;;26.02;;
47381;SDS011;33128;51.580;5.170;2022-12-07T01:59:11;27.13;;;25.75;;
47381;SDS011;33128;51.580;5.170;2022-12-07T02:01:38;25.85;;;24.60;;
47381;SDS011;33128;51.580;5.170;2022-12-07T02:04:04;27.08;;;25.50;;
47381;SDS011;33128;51.580;5.170;2022-12-07T02:06:31;27.17;;;25.88;;
47381;SDS011;33128;51.580;5.170;2022-12-07T02:08:57;26.42;;;25.23;;
47381;SDS011;33128;51.580;5.170;2022-12-07T02:11:22;26.05;;;24.85;;
47381;SDS011;33128;51.580;5.170;2022-12-07T02:13:48;27.27;;;25.52;;
47381;SDS011;33128;51.580;5.170;2022-12-07T02:16:17;25.88;;;24.77;;
47381;SDS011;33128;51.580;5.170;2022-12-07T02:29:22;27.92;;;26.60;;
47381;SDS011;33128;51.580;5.170;2022-12-07T02:31:54;26.95;;;25.85;;
47381;SDS011;33128;51.580;5.170;2022-12-07T02:36:55;26.17;;;24.88;;
47381;SDS011;33128;51.580;5.170;2022-12-07T02:39:41;26.83;;;25.48;;
47381;SDS011;33128;51.580;5.170;2022-12-07T02:42:15;26.83;;;25.40;;
47381;SDS011;33128;51.580;5.170;2022-12-07T02:44:45;25.50;;;24.08;;
47381;SDS011;33128;51.580;5.170;2022-12-07T02:47:13;26.23;;;24.77;;
47381;SDS011;33128;51.580;5.170;2022-12-07T02:49:41;24.73;;;23.65;;
47381;SDS011;33128;51.580;5.170;2022-12-07T02:52:07;25.60;;;24.30;;
47381;SDS011;33128;51.580;5.170;2022-12-07T02:54:33;26.33;;;24.48;;
47381;SDS011;33128;51.580;5.170;2022-12-07T03:04:47;25.13;;;23.88;;
47381;SDS011;33128;51.580;5.170;2022-12-07T03:13:02;26.13;;;24.98;;
47381;SDS011;33128;51.580;5.170;2022-12-07T03:15:49;27.40;;;25.98;;
47381;SDS011;33128;51.580;5.170;2022-12-07T03:18:18;27.55;;;26.05;;
47381;SDS011;33128;51.580;5.170;2022-12-07T03:20:49;27.98;;;26.63;;
47381;SDS011;33128;51.580;5.170;2022-12-07T03:23:18;25.88;;;24.67;;
47381;SDS011;33128;51.580;5.170;2022-12-07T03:25:47;25.63;;;24.42;;
47381;SDS011;33128;51.580;5.170;2022-12-07T03:28:18;26.25;;;25.13;;
47381;SDS011;33128;51.580;5.170;2022-12-07T03:33:24;26.67;;;25.48;;
47381;SDS011;33128;51.580;5.170;2022-12-07T03:39:04;25.55;;;24.45;;
47381;SDS011;33128;51.580;5.170;2022-12-07T03:41:47;26.20;;;24.88;;
47381;SDS011;33128;51.580;5.170;2022-12-07T03:44:14;26.48;;;25.27;;
47381;SDS011;33128;51.580;5.170;2022-12-07T03:49:18;27.45;;;26.15;;
47381;SDS011;33128;51.580;5.170;2022-12-07T03:57:30;26.30;;;25.15;;
47381;SDS011;33128;51.580;5.170;2022-12-07T03:59:58;27.05;;;25.75;;
47381;SDS011;33128;51.580;5.170;2022-12-07T04:02:25;26.60;;;25.05;;
47381;SDS011;33128;51.580;5.170;2022-12-07T04:04:53;28.95;;;26.90;;
47381;SDS011;33128;51.580;5.170;2022-12-07T04:07:22;27.65;;;26.15;;
47381;SDS011;33128;51.580;5.170;2022-12-07T04:09:48;26.75;;;25.55;;
47381;SDS011;33128;51.580;5.170;2022-12-07T04:12:14;25.90;;;24.70;;
47381;SDS011;33128;51.580;5.170;2022-12-07T04:14:39;24.90;;;23.70;;
47381;SDS011;33128;51.580;5.170;2022-12-07T04:17:05;24.23;;;23.13;;
47381;SDS011;33128;51.580;5.170;2022-12-07T04:19:32;26.15;;;24.85;;
47381;SDS011;33128;51.580;5.170;2022-12-07T04:21:59;24.55;;;23.30;;
47381;SDS011;33128;51.580;5.170;2022-12-07T04:24:26;26.40;;;25.10;;
47381;SDS011;33128;51.580;5.170;2022-12-07T04:26:52;26.50;;;24.85;;
47381;SDS011;33128;51.580;5.170;2022-12-07T04:29:23;25.27;;;24.10;;
47381;SDS011;33128;51.580;5.170;2022-12-07T04:31:50;25.75;;;24.42;;
47381;SDS011;33128;51.580;5.170;2022-12-07T04:34:16;24.92;;;23.73;;
47381;SDS011;33128;51.580;5.170;2022-12-07T04:36:43;42.42;;;40.35;;
47381;SDS011;33128;51.580;5.170;2022-12-07T04:39:20;44.08;;;41.88;;
47381;SDS011;33128;51.580;5.170;2022-12-07T04:41:57;44.88;;;42.53;;
47381;SDS011;33128;51.580;5.170;2022-12-07T04:44:29;39.78;;;37.50;;
47381;SDS011;33128;51.580;5.170;2022-12-07T04:46:58;38.80;;;36.90;;
47381;SDS011;33128;51.580;5.170;2022-12-07T04:49:24;38.30;;;36.47;;
47381;SDS011;33128;51.580;5.170;2022-12-07T04:51:58;42.45;;;40.33;;
47381;SDS011;33128;51.580;5.170;2022-12-07T04:54:24;42.40;;;40.28;;
47381;SDS011;33128;51.580;5.170;2022-12-07T04:57:10;41.67;;;39.35;;
47381;SDS011;33128;51.580;5.170;2022-12-07T04:59:42;44.28;;;41.70;;
47381;SDS011;33128;51.580;5.170;2022-12-07T05:02:20;42.08;;;39.95;;
47381;SDS011;33128;51.580;5.170;2022-12-07T05:04:45;41.97;;;39.40;;
47381;SDS011;33128;51.580;5.170;2022-12-07T05:07:11;41.45;;;39.13;;
47381;SDS011;33128;51.580;5.170;2022-12-07T05:09:46;37.00;;;35.00;;
47381;SDS011;33128;51.580;5.170;2022-12-07T05:12:11;41.75;;;39.35;;
47381;SDS011;33128;51.580;5.170;2022-12-07T05:14:37;41.40;;;39.20;;
47381;SDS011;33128;51.580;5.170;2022-12-07T05:17:14;40.05;;;37.65;;
47381;SDS011;33128;51.580;5.170;2022-12-07T05:19:41;41.08;;;38.53;;
47381;SDS011;33128;51.580;5.170;2022-12-07T05:22:21;40.28;;;38.22;;
47381;SDS011;33128;51.580;5.170;2022-12-07T05:24:52;39.20;;;37.03;;
47381;SDS011;33128;51.580;5.170;2022-12-07T05:27:27;39.10;;;37.20;;
47381;SDS011;33128;51.580;5.170;2022-12-07T05:30:03;39.53;;;37.33;;
47381;SDS011;33128;51.580;5.170;2022-12-07T05:32:32;39.50;;;37.40;;
47381;SDS011;33128;51.580;5.170;2022-12-07T05:34:58;38.78;;;36.58;;
47381;SDS011;33128;51.580;5.170;2022-12-07T05:37:33;35.92;;;34.10;;
47381;SDS011;33128;51.580;5.170;2022-12-07T05:40:03;36.25;;;34.13;;
47381;SDS011;33128;51.580;5.170;2022-12-07T05:42:36;33.75;;;31.88;;
47381;SDS011;33128;51.580;5.170;2022-12-07T05:45:02;33.58;;;31.58;;
47381;SDS011;33128;51.580;5.170;2022-12-07T05:47:28;35.08;;;33.13;;
47381;SDS011;33128;51.580;5.170;2022-12-07T05:49:54;33.67;;;31.88;;
47381;SDS011;33128;51.580;5.170;2022-12-07T05:52:22;33.75;;;32.08;;
47381;SDS011;33128;51.580;5.170;2022-12-07T05:54:48;36.97;;;34.55;;
47381;SDS011;33128;51.580;5.170;2022-12-07T05:57:14;34.20;;;32.30;;
47381;SDS011;33128;51.580;5.170;2022-12-07T05:59:40;42.45;;;40.25;;
47381;SDS011;33128;51.580;5.170;2022-12-07T06:02:07;41.97;;;39.83;;
47381;SDS011;33128;51.580;5.170;2022-12-07T06:04:35;40.53;;;38.35;;
47381;SDS011;33128;51.580;5.170;2022-12-07T06:07:03;36.95;;;34.90;;
47381;SDS011;33128;51.580;5.170;2022-12-07T06:09:33;38.03;;;36.20;;
47381;SDS011;33128;51.580;5.170;2022-12-07T06:11:59;38.53;;;36.53;;
47381;SDS011;33128;51.580;5.170;2022-12-07T06:14:43;38.10;;;36.20;;
47381;SDS011;33128;51.580;5.170;2022-12-07T06:17:09;38.28;;;36.38;;
47381;SDS011;33128;51.580;5.170;2022-12-07T06:19:35;39.72;;;37.83;;
47381;SDS011;33128;51.580;5.170;2022-12-07T06:22:01;38.42;;;36.53;;
47381;SDS011;33128;51.580;5.170;2022-12-07T06:24:29;38.05;;;36.15;;
47381;SDS011;33128;51.580;5.170;2022-12-07T06:26:55;36.47;;;34.38;;
47381;SDS011;33128;51.580;5.170;2022-12-07T06:29:21;36.20;;;34.30;;
47381;SDS011;33128;51.580;5.170;2022-12-07T06:31:47;37.00;;;35.10;;
47381;SDS011;33128;51.580;5.170;2022-12-07T06:34:14;39.88;;;37.58;;
47381;SDS011;33128;51.580;5.170;2022-12-07T06:36:44;39.45;;;37.45;;
47381;SDS011;33128;51.580;5.170;2022-12-07T06:39:19;36.72;;;34.83;;
47381;SDS011;33128;51.580;5.170;2022-12-07T06:41:47;38.35;;;36.45;;
47381;SDS011;33128;51.580;5.170;2022-12-07T06:44:14;38.08;;;35.92;;
47381;SDS011;33128;51.580;5.170;2022-12-07T06:46:39;36.92;;;34.88;;
47381;SDS011;33128;51.580;5.170;2022-12-07T06:49:11;36.97;;;35.08;;
47381;SDS011;33128;51.580;5.170;2022-12-07T06:51:36;37.97;;;35.95;;
47381;SDS011;33128;51.580;5.170;2022-12-07T06:54:18;35.33;;;32.88;;
47381;SDS011;33128;51.580;5.170;2022-12-07T06:56:44;35.80;;;33.58;;
47381;SDS011;33128;51.580;5.170;2022-12-07T06:59:09;36.95;;;35.25;;
47381;SDS011;33128;51.580;5.170;2022-12-07T07:01:41;37.55;;;35.75;;
47381;SDS011;33128;51.580;5.170;2022-12-07T07:04:10;36.75;;;34.95;;
47381;SDS011;33128;51.580;5.170;2022-12-07T07:06:35;35.33;;;33.25;;
47381;SDS011;33128;51.580;5.170;2022-12-07T07:09:10;32.78;;;31.08;;
47381;SDS011;33128;51.580;5.170;2022-12-07T07:11:47;33.80;;;32.20;;
47381;SDS011;33128;51.580;5.170;2022-12-07T07:14:14;37.22;;;35.38;;
47381;SDS011;33128;51.580;5.170;2022-12-07T07:16:56;35.28;;;33.58;;
47381;SDS011;33128;51.580;5.170;2022-12-07T07:19:21;39.60;;;37.45;;
47381;SDS011;33128;51.580;5.170;2022-12-07T07:21:47;35.75;;;33.95;;
47381;SDS011;33128;51.580;5.170;2022-12-07T07:24:25;37.10;;;35.13;;
47381;SDS011;33128;51.580;5.170;2022-12-07T07:26:51;37.53;;;35.40;;
47381;SDS011;33128;51.580;5.170;2022-12-07T07:29:16;39.00;;;36.78;;
47381;SDS011;33128;51.580;5.170;2022-12-07T07:31:51;37.63;;;35.42;;
47381;SDS011;33128;51.580;5.170;2022-12-07T07:34:17;38.72;;;36.55;;
47381;SDS011;33128;51.580;5.170;2022-12-07T07:36:42;37.78;;;35.83;;
47381;SDS011;33128;51.580;5.170;2022-12-07T07:39:14;36.83;;;34.92;;
47381;SDS011;33128;51.580;5.170;2022-12-07T07:41:40;36.58;;;34.63;;
47381;SDS011;33128;51.580;5.170;2022-12-07T07:44:06;37.17;;;34.97;;
47381;SDS011;33128;51.580;5.170;2022-12-07T07:46:31;33.50;;;31.17;;
47381;SDS011;33128;51.580;5.170;2022-12-07T07:48:58;34.15;;;32.42;;
47381;SDS011;33128;51.580;5.170;2022-12-07T07:51:23;34.85;;;32.72;;
47381;SDS011;33128;51.580;5.170;2022-12-07T07:53:49;35.17;;;33.38;;
47381;SDS011;33128;51.580;5.170;2022-12-07T07:56:15;33.78;;;31.77;;
47381;SDS011;33128;51.580;5.170;2022-12-07T07:58:41;36.13;;;33.92;;
47381;SDS011;33128;51.580;5.170;2022-12-07T08:01:06;36.88;;;34.65;;
47381;SDS011;33128;51.580;5.170;2022-12-07T08:03:33;38.13;;;36.13;;
47381;SDS011;33128;51.580;5.170;2022-12-07T08:05:59;36.20;;;34.00;;
47381;SDS011;33128;51.580;5.170;2022-12-07T08:08:24;35.13;;;33.33;;
47381;SDS011;33128;51.580;5.170;2022-12-07T08:10:50;34.83;;;32.75;;
47381;SDS011;33128;51.580;5.170;2022-12-07T08:13:16;37.38;;;35.47;;
47381;SDS011;33128;51.580;5.170;2022-12-07T08:15:46;34.83;;;33.08;;
47381;SDS011;33128;51.580;5.170;2022-12-07T08:18:13;35.88;;;33.97;;
47381;SDS011;33128;51.580;5.170;2022-12-07T08:20:40;37.38;;;35.47;;
47381;SDS011;33128;51.580;5.170;2022-12-07T08:23:07;36.13;;;34.22;;
47381;SDS011;33128;51.580;5.170;2022-12-07T08:25:34;35.13;;;33.25;;
47381;SDS011;33128;51.580;5.170;2022-12-07T08:27:59;36.65;;;34.55;;
47381;SDS011;33128;51.580;5.170;2022-12-07T08:30:25;37.05;;;34.95;;
47381;SDS011;33128;51.580;5.170;2022-12-07T08:32:52;35.35;;;33.25;;
47381;SDS011;33128;51.580;5.170;2022-12-07T08:35:18;36.80;;;34.63;;
47381;SDS011;33128;51.580;5.170;2022-12-07T08:37:43;36.97;;;34.78;;
47381;SDS011;33128;51.580;5.170;2022-12-07T08:40:09;35.60;;;33.47;;
47381;SDS011;33128;51.580;5.170;2022-12-07T08:42:39;37.67;;;35.30;;
47381;SDS011;33128;51.580;5.170;2022-12-07T08:45:10;36.08;;;34.10;;
47381;SDS011;33128;51.580;5.170;2022-12-07T08:47:37;34.63;;;32.72;;
47381;SDS011;33128;51.580;5.170;2022-12-07T08:50:09;36.95;;;34.95;;
47381;SDS011;33128;51.580;5.170;2022-12-07T08:52:37;36.85;;;34.97;;
47381;SDS011;33128;51.580;5.170;2022-12-07T08:55:03;36.10;;;34.10;;
47381;SDS011;33128;51.580;5.170;2022-12-07T08:57:33;35.30;;;33.50;;
47381;SDS011;33128;51.580;5.170;2022-12-07T09:00:00;35.63;;;33.53;;
47381;SDS011;33128;51.580;5.170;2022-12-07T09:02:27;35.92;;;34.13;;
47381;SDS011;33128;51.580;5.170;2022-12-07T09:04:52;38.15;;;36.15;;
47381;SDS011;33128;51.580;5.170;2022-12-07T09:07:18;37.25;;;34.80;;
47381;SDS011;33128;51.580;5.170;2022-12-07T09:09:43;33.58;;;31.58;;
47381;SDS011;33128;51.580;5.170;2022-12-07T09:12:09;38.58;;;36.40;;
47381;SDS011;33128;51.580;5.170;2022-12-07T09:14:35;38.53;;;36.50;;
47381;SDS011;33128;51.580;5.170;2022-12-07T09:17:10;35.42;;;33.63;;
47381;SDS011;33128;51.580;5.170;2022-12-07T09:19:37;38.88;;;36.13;;
47381;SDS011;33128;51.580;5.170;2022-12-07T09:22:03;36.58;;;34.75;;
47381;SDS011;33128;51.580;5.170;2022-12-07T09:24:29;36.15;;;33.92;;
47381;SDS011;33128;51.580;5.170;2022-12-07T09:26:56;35.80;;;33.80;;
47381;SDS011;33128;51.580;5.170;2022-12-07T09:29:22;37.17;;;35.10;;
47381;SDS011;33128;51.580;5.170;2022-12-07T09:31:54;36.58;;;34.72;;
47381;SDS011;33128;51.580;5.170;2022-12-07T09:34:19;38.85;;;36.85;;
47381;SDS011;33128;51.580;5.170;2022-12-07T09:36:46;37.28;;;35.22;;
47381;SDS011;33128;51.580;5.170;2022-12-07T09:39:12;36.25;;;33.95;;
47381;SDS011;33128;51.580;5.170;2022-12-07T09:41:41;36.47;;;34.35;;
47381;SDS011;33128;51.580;5.170;2022-12-07T09:44:10;36.85;;;34.85;;
47381;SDS011;33128;51.580;5.170;2022-12-07T09:46:39;36.10;;;34.20;;
47381;SDS011;33128;51.580;5.170;2022-12-07T09:49:14;36.75;;;34.90;;
47381;SDS011;33128;51.580;5.170;2022-12-07T09:51:44;37.30;;;35.50;;
47381;SDS011;33128;51.580;5.170;2022-12-07T09:54:14;36.85;;;35.05;;
47381;SDS011;33128;51.580;5.170;2022-12-07T09:56:41;34.85;;;32.92;;
47381;SDS011;33128;51.580;5.170;2022-12-07T09:59:16;38.70;;;36.53;;
47381;SDS011;33128;51.580;5.170;2022-12-07T10:01:43;36.10;;;34.20;;
47381;SDS011;33128;51.580;5.170;2022-12-07T10:04:14;35.30;;;33.20;;
47381;SDS011;33128;51.580;5.170;2022-12-07T10:06:46;36.03;;;33.67;;
47381;SDS011;33128;51.580;5.170;2022-12-07T10:09:13;36.65;;;34.78;;
47381;SDS011;33128;51.580;5.170;2022-12-07T10:14:30;37.85;;;35.95;;
47381;SDS011;33128;51.580;5.170;2022-12-07T10:16:58;36.95;;;34.90;;
47381;SDS011;33128;51.580;5.170;2022-12-07T10:22:15;37.42;;;35.10;;
47381;SDS011;33128;51.580;5.170;2022-12-07T10:24:42;35.95;;;33.95;;
47381;SDS011;33128;51.580;5.170;2022-12-07T10:27:21;35.08;;;33.08;;
47381;SDS011;33128;51.580;5.170;2022-12-07T10:29:54;36.10;;;34.00;;
47381;SDS011;33128;51.580;5.170;2022-12-07T10:34:45;35.95;;;33.67;;
47381;SDS011;33128;51.580;5.170;2022-12-07T10:42:09;35.40;;;33.53;;
47381;SDS011;33128;51.580;5.170;2022-12-07T10:44:49;35.97;;;34.08;;
47381;SDS011;33128;51.580;5.170;2022-12-07T10:47:35;37.42;;;35.63;;
47381;SDS011;33128;51.580;5.170;2022-12-07T10:50:17;38.40;;;36.17;;
47381;SDS011;33128;51.580;5.170;2022-12-07T10:53:10;39.13;;;36.75;;
47381;SDS011;33128;51.580;5.170;2022-12-07T10:56:02;37.72;;;35.72;;
47381;SDS011;33128;51.580;5.170;2022-12-07T11:12:36;36.70;;;34.47;;
47381;SDS011;33128;51.580;5.170;2022-12-07T11:15:13;38.80;;;36.80;;
47381;SDS011;33128;51.580;5.170;2022-12-07T11:18:04;35.42;;;33.55;;
47381;SDS011;33128;51.580;5.170;2022-12-07T11:31:37;35.70;;;33.80;;
47381;SDS011;33128;51.580;5.170;2022-12-07T11:34:08;36.90;;;34.92;;
47381;SDS011;33128;51.580;5.170;2022-12-07T11:36:51;37.17;;;35.38;;
47381;SDS011;33128;51.580;5.170;2022-12-07T11:41:51;37.45;;;35.38;;
47381;SDS011;33128;51.580;5.170;2022-12-07T11:44:32;39.33;;;36.80;;
47381;SDS011;33128;51.580;5.170;2022-12-07T11:47:11;38.72;;;36.83;;
47381;SDS011;33128;51.580;5.170;2022-12-07T11:50:01;39.13;;;37.13;;
47381;SDS011;33128;51.580;5.170;2022-12-07T11:52:51;38.85;;;36.92;;
47381;SDS011;33128;51.580;5.170;2022-12-07T12:06:34;36.22;;;34.42;;
47381;SDS011;33128;51.580;5.170;2022-12-07T12:09:12;39.35;;;37.25;;
47381;SDS011;33128;51.580;5.170;2022-12-07T12:22:38;36.38;;;34.47;;
47381;SDS011;33128;51.580;5.170;2022-12-07T12:25:07;36.80;;;34.80;;
47381;SDS011;33128;51.580;5.170;2022-12-07T12:27:46;35.38;;;33.58;;
47381;SDS011;33128;51.580;5.170;2022-12-07T12:30:30;35.10;;;33.33;;
47381;SDS011;33128;51.580;5.170;2022-12-07T12:33:02;35.97;;;34.08;;
47381;SDS011;33128;51.580;5.170;2022-12-07T12:35:39;36.28;;;34.47;;
47381;SDS011;33128;51.580;5.170;2022-12-07T12:40:52;37.25;;;34.97;;
47381;SDS011;33128;51.580;5.170;2022-12-07T12:51:48;37.75;;;35.85;;
47381;SDS011;33128;51.580;5.170;2022-12-07T12:54:25;38.25;;;36.00;;
47381;SDS011;33128;51.580;5.170;2022-12-07T13:18:23;37.28;;;35.38;;
47381;SDS011;33128;51.580;5.170;2022-12-07T13:20:55;36.75;;;34.85;;
47381;SDS011;33128;51.580;5.170;2022-12-07T13:23:22;36.78;;;34.88;;
47381;SDS011;33128;51.580;5.170;2022-12-07T13:28:38;37.10;;;35.20;;
47381;SDS011;33128;51.580;5.170;2022-12-07T13:33:40;37.97;;;35.97;;
47381;SDS011;33128;51.580;5.170;2022-12-07T13:36:12;37.53;;;35.53;;
47381;SDS011;33128;51.580;5.170;2022-12-07T13:40:12;37.85;;;35.95;;
47381;SDS011;33128;51.580;5.170;2022-12-07T13:41:59;36.70;;;34.80;;
47381;SDS011;33128;51.580;5.170;2022-12-07T13:44:39;36.20;;;34.30;;
47381;SDS011;33128;51.580;5.170;2022-12-07T13:47:17;35.65;;;33.85;;
47381;SDS011;33128;51.580;5.170;2022-12-07T13:49:53;34.20;;;32.50;;
47381;SDS011;33128;51.580;5.170;2022-12-07T13:52:22;35.90;;;34.00;;
47381;SDS011;33128;51.580;5.170;2022-12-07T13:54:56;35.78;;;33.97;;
47381;SDS011;33128;51.580;5.170;2022-12-07T13:57:24;35.53;;;33.60;;
47381;SDS011;33128;51.580;5.170;2022-12-07T13:59:51;35.45;;;33.60;;
47381;SDS011;33128;51.580;5.170;2022-12-07T14:02:27;35.90;;;34.05;;
47381;SDS011;33128;51.580;5.170;2022-12-07T14:07:49;35.10;;;33.30;;
47381;SDS011;33128;51.580;5.170;2022-12-07T14:10:29;33.35;;;31.65;;
47381;SDS011;33128;51.580;5.170;2022-12-07T14:12:58;35.95;;;34.10;;
47381;SDS011;33128;51.580;5.170;2022-12-07T14:15:26;35.13;;;33.33;;
47381;SDS011;33128;51.580;5.170;2022-12-07T14:17:57;36.17;;;34.38;;
47381;SDS011;33128;51.580;5.170;2022-12-07T14:20:29;36.58;;;34.67;;
47381;SDS011;33128;51.580;5.170;2022-12-07T14:22:55;33.35;;;31.65;;
47381;SDS011;33128;51.580;5.170;2022-12-07T14:25:24;33.95;;;32.15;;
47381;SDS011;33128;51.580;5.170;2022-12-07T14:27:53;32.45;;;30.85;;
47381;SDS011;33128;51.580;5.170;2022-12-07T14:30:27;32.97;;;31.27;;
47381;SDS011;33128;51.580;5.170;2022-12-07T14:32:57;33.10;;;31.40;;
47381;SDS011;33128;51.580;5.170;2022-12-07T14:35:25;33.42;;;31.70;;
47381;SDS011;33128;51.580;5.170;2022-12-07T14:37:51;34.08;;;31.98;;
47381;SDS011;33128;51.580;5.170;2022-12-07T14:40:19;33.05;;;31.45;;
47381;SDS011;33128;51.580;5.170;2022-12-07T14:42:46;35.15;;;33.20;;
47381;SDS011;33128;51.580;5.170;2022-12-07T14:45:19;33.42;;;31.73;;
47381;SDS011;33128;51.580;5.170;2022-12-07T14:47:47;34.75;;;32.85;;
47381;SDS011;33128;51.580;5.170;2022-12-07T14:50:14;35.55;;;33.45;;
47381;SDS011;33128;51.580;5.170;2022-12-07T14:52:43;36.38;;;34.47;;
47381;SDS011;33128;51.580;5.170;2022-12-07T14:55:31;34.72;;;32.92;;
47381;SDS011;33128;51.580;5.170;2022-12-07T14:57:57;36.55;;;34.75;;
47381;SDS011;33128;51.580;5.170;2022-12-07T15:00:24;37.22;;;35.35;;
47381;SDS011;33128;51.580;5.170;2022-12-07T15:02:51;37.20;;;35.30;;
47381;SDS011;33128;51.580;5.170;2022-12-07T15:05:17;36.17;;;34.35;;
47381;SDS011;33128;51.580;5.170;2022-12-07T15:07:43;36.38;;;34.58;;
47381;SDS011;33128;51.580;5.170;2022-12-07T15:10:17;34.65;;;32.95;;
47381;SDS011;33128;51.580;5.170;2022-12-07T15:12:56;34.97;;;33.28;;
47381;SDS011;33128;51.580;5.170;2022-12-07T15:15:45;34.88;;;32.85;;
47381;SDS011;33128;51.580;5.170;2022-12-07T15:18:11;35.95;;;34.15;;
47381;SDS011;33128;51.580;5.170;2022-12-07T15:20:37;34.80;;;33.10;;
47381;SDS011;33128;51.580;5.170;2022-12-07T15:23:03;34.63;;;32.78;;
47381;SDS011;33128;51.580;5.170;2022-12-07T15:25:28;35.00;;;33.25;;
47381;SDS011;33128;51.580;5.170;2022-12-07T15:27:54;35.22;;;33.42;;
47381;SDS011;33128;51.580;5.170;2022-12-07T15:30:19;35.38;;;33.40;;
47381;SDS011;33128;51.580;5.170;2022-12-07T15:32:48;35.55;;;33.75;;
47381;SDS011;33128;51.580;5.170;2022-12-07T15:35:15;35.70;;;33.90;;
47381;SDS011;33128;51.580;5.170;2022-12-07T15:37:41;35.05;;;33.25;;
47381;SDS011;33128;51.580;5.170;2022-12-07T15:40:06;33.75;;;32.05;;
47381;SDS011;33128;51.580;5.170;2022-12-07T15:42:36;34.00;;;32.30;;
47381;SDS011;33128;51.580;5.170;2022-12-07T15:45:03;35.88;;;34.08;;
47381;SDS011;33128;51.580;5.170;2022-12-07T15:50:12;35.30;;;33.53;;
47381;SDS011;33128;51.580;5.170;2022-12-07T15:52:40;34.08;;;32.35;;
47381;SDS011;33128;51.580;5.170;2022-12-07T15:55:08;32.67;;;30.98;;
47381;SDS011;33128;51.580;5.170;2022-12-07T15:57:35;32.45;;;30.85;;
47381;SDS011;33128;51.580;5.170;2022-12-07T16:00:04;32.92;;;31.27;;
47381;SDS011;33128;51.580;5.170;2022-12-07T16:02:35;32.28;;;30.50;;
47381;SDS011;33128;51.580;5.170;2022-12-07T16:05:02;34.03;;;32.05;;
47381;SDS011;33128;51.580;5.170;2022-12-07T16:07:28;31.27;;;29.48;;
47381;SDS011;33128;51.580;5.170;2022-12-07T16:09:53;31.98;;;30.08;;
47381;SDS011;33128;51.580;5.170;2022-12-07T16:12:25;33.05;;;30.77;;
47381;SDS011;33128;51.580;5.170;2022-12-07T16:14:51;33.03;;;31.13;;
47381;SDS011;33128;51.580;5.170;2022-12-07T16:17:16;32.80;;;30.73;;
47381;SDS011;33128;51.580;5.170;2022-12-07T16:19:42;31.95;;;30.35;;
47381;SDS011;33128;51.580;5.170;2022-12-07T16:22:07;32.35;;;30.65;;
47381;SDS011;33128;51.580;5.170;2022-12-07T16:24:33;33.28;;;31.48;;
47381;SDS011;33128;51.580;5.170;2022-12-07T16:26:58;32.55;;;30.45;;
47381;SDS011;33128;51.580;5.170;2022-12-07T16:29:24;33.53;;;31.73;;
47381;SDS011;33128;51.580;5.170;2022-12-07T16:31:50;33.80;;;32.10;;
47381;SDS011;33128;51.580;5.170;2022-12-07T16:34:16;34.80;;;32.85;;
47381;SDS011;33128;51.580;5.170;2022-12-07T16:36:42;33.35;;;31.65;;
47381;SDS011;33128;51.580;5.170;2022-12-07T16:39:10;32.85;;;30.85;;
47381;SDS011;33128;51.580;5.170;2022-12-07T16:41:36;32.95;;;31.15;;
47381;SDS011;33128;51.580;5.170;2022-12-07T16:44:05;30.52;;;28.92;;
47381;SDS011;33128;51.580;5.170;2022-12-07T16:46:32;31.63;;;29.90;;
47381;SDS011;33128;51.580;5.170;2022-12-07T16:48:58;32.42;;;30.70;;
47381;SDS011;33128;51.580;5.170;2022-12-07T16:51:24;30.48;;;28.88;;
47381;SDS011;33128;51.580;5.170;2022-12-07T16:53:50;30.98;;;29.38;;
47381;SDS011;33128;51.580;5.170;2022-12-07T16:56:18;30.10;;;28.50;;
47381;SDS011;33128;51.580;5.170;2022-12-07T16:58:44;31.70;;;30.00;;
47381;SDS011;33128;51.580;5.170;2022-12-07T17:01:13;31.92;;;30.23;;
47381;SDS011;33128;51.580;5.170;2022-12-07T17:03:44;33.85;;;32.15;;
47381;SDS011;33128;51.580;5.170;2022-12-07T17:06:11;32.40;;;30.45;;